Time;durP1;ratioP1;P1;durP2;ratioP2;P2;SDS_P1;SDS_P2;PMS_P1;PMS_P2;Temp;Humidity;BMP_temperature;BMP_pressure;BME280_temperature;BME280_humidity;BME280_pressure;Samples;Min_cycle;Max_cycle;Signal;HPM_P1;HPM_P2
2022/01/25 00:15:07;;;;;;;10.90;9.90;;;22.00;40.10;;;;;;5060476;28;43187;-59
2022/01/25 00:28:26;;;;;;;11.50;10.50;;;21.90;40.00;;;;;;5050185;28;42966;-58
2022/01/25 00:33:23;;;;;;;10.65;9.65;;;21.90;39.90;;;;;;5068659;28;20072;-59
2022/01/25 00:35:49;;;;;;;11.32;10.25;;;21.80;39.80;;;;;;5060755;28;20083;-59
2022/01/25 00:38:14;;;;;;;12.02;10.93;;;21.80;39.90;;;;;;5067745;28;20086;-57
2022/01/25 00:40:40;;;;;;;11.80;10.75;;;21.80;39.80;;;;;;5051668;28;20127;-59
2022/01/25 00:43:06;;;;;;;11.77;10.68;;;21.80;39.90;;;;;;5042677;28;45613;-57
2022/01/25 00:45:31;;;;;;;11.60;10.60;;;21.80;40.00;;;;;;5060976;28;20659;-59
2022/01/25 00:47:57;;;;;;;12.52;11.20;;;21.70;39.80;;;;;;5068145;28;20044;-59
2022/01/25 00:50:23;;;;;;;11.57;10.48;;;21.70;39.90;;;;;;5055906;28;20047;-59
2022/01/25 00:55:15;;;;;;;11.50;10.35;;;21.70;39.90;;;;;;5067190;28;20118;-59
2022/01/25 00:57:41;;;;;;;13.13;11.93;;;21.70;39.90;;;;;;5063618;28;45733;-59
2022/01/25 01:00:09;;;;;;;11.52;10.52;;;21.70;39.80;;;;;;5067510;28;20071;-59
2022/01/25 01:02:34;;;;;;;11.70;10.68;;;21.70;39.90;;;;;;5063630;28;20161;-59
2022/01/25 01:05:00;;;;;;;15.15;11.07;;;21.70;39.80;;;;;;5069446;28;20036;-59
2022/01/25 01:07:26;;;;;;;12.02;10.82;;;21.60;39.80;;;;;;5064946;28;20113;-59
2022/01/25 01:09:53;;;;;;;12.10;11.00;;;21.60;39.70;;;;;;5056278;28;20053;-59
2022/01/25 01:15:19;;;;;;;11.85;10.70;;;21.60;39.70;;;;;;5051879;28;20048;-59
2022/01/25 01:31:57;;;;;;;12.80;11.20;;;21.50;39.80;;;;;;5044043;28;20056;-58
2022/01/25 01:41:59;;;;;;;14.38;11.38;;;21.40;39.70;;;;;;5047436;28;20159;-59
2022/01/25 01:44:28;;;;;;;12.48;11.18;;;21.40;39.70;;;;;;5049355;28;20049;-59
2022/01/25 01:47:04;;;;;;;14.20;11.70;;;21.40;39.80;;;;;;5031674;28;20044;-59
2022/01/25 01:49:30;;;;;;;12.68;11.30;;;21.40;39.70;;;;;;5050811;28;20036;-57
2022/01/25 01:51:56;;;;;;;13.18;11.75;;;21.40;39.80;;;;;;5021305;28;20029;-59
2022/01/25 01:54:22;;;;;;;13.20;11.82;;;21.40;39.70;;;;;;5045585;28;48820;-58
2022/01/25 01:56:47;;;;;;;16.95;11.40;;;21.40;39.60;;;;;;5052024;28;20040;-58
2022/01/25 01:59:16;;;;;;;12.70;11.43;;;21.40;39.60;;;;;;5050098;28;20119;-59
2022/01/25 02:01:44;;;;;;;14.52;12.77;;;21.40;39.60;;;;;;5051656;28;20162;-59
2022/01/25 02:04:12;;;;;;;13.95;12.38;;;21.30;39.70;;;;;;5051974;28;20827;-59
2022/01/25 02:06:38;;;;;;;13.38;11.98;;;21.30;39.70;;;;;;5056073;28;20160;-59
2022/01/25 02:09:05;;;;;;;14.65;12.52;;;21.30;39.60;;;;;;5041880;28;20185;-59
2022/01/25 02:11:31;;;;;;;13.18;11.70;;;21.30;39.70;;;;;;5073968;28;20073;-58
2022/01/25 02:14:03;;;;;;;15.20;12.18;;;21.30;39.70;;;;;;5069885;28;20509;-59
2022/01/25 02:16:44;;;;;;;14.55;11.75;;;21.30;39.70;;;;;;5071947;28;20067;-59
2022/01/25 02:24:41;;;;;;;14.02;12.70;;;21.20;39.60;;;;;;5074816;28;20044;-58
2022/01/25 02:27:07;;;;;;;14.23;12.82;;;21.20;39.60;;;;;;5068965;28;20496;-58
2022/01/25 02:29:33;;;;;;;12.45;11.35;;;21.20;39.50;;;;;;5073577;28;20052;-58
2022/01/25 02:31:58;;;;;;;13.15;11.80;;;21.20;39.60;;;;;;5070161;28;20033;-58
2022/01/25 02:34:25;;;;;;;14.45;12.68;;;21.20;39.50;;;;;;5073340;28;20040;-58
2022/01/25 02:36:58;;;;;;;13.40;12.20;;;21.20;39.50;;;;;;5068537;28;45333;-59
2022/01/25 02:39:24;;;;;;;13.32;12.10;;;21.10;39.50;;;;;;5071703;28;20044;-59
2022/01/25 02:41:52;;;;;;;12.57;11.43;;;21.20;39.50;;;;;;5072314;28;20043;-59
2022/01/25 02:44:24;;;;;;;13.27;12.07;;;21.10;39.50;;;;;;5071637;28;20048;-59
2022/01/25 02:49:19;;;;;;;13.15;11.95;;;21.10;39.50;;;;;;5068873;28;43347;-59
2022/01/25 02:51:47;;;;;;;13.32;12.13;;;21.10;39.50;;;;;;5071598;28;20041;-59
2022/01/25 02:54:15;;;;;;;14.23;12.77;;;21.10;39.60;;;;;;5070724;28;20090;-59
2022/01/25 02:56:43;;;;;;;13.68;12.48;;;21.10;39.50;;;;;;5069117;28;20051;-58
2022/01/25 02:59:09;;;;;;;13.05;11.95;;;21.10;39.50;;;;;;5071901;28;20052;-59
2022/01/25 03:01:36;;;;;;;14.20;12.80;;;21.10;39.50;;;;;;5062604;28;20040;-58
2022/01/25 03:04:03;;;;;;;13.75;12.43;;;21.00;39.50;;;;;;5064385;28;25551;-59
2022/01/25 03:06:29;;;;;;;13.30;11.90;;;21.00;39.40;;;;;;5067925;28;20044;-57
2022/01/25 03:08:55;;;;;;;13.63;12.25;;;21.00;39.50;;;;;;5070771;28;20098;-58
2022/01/25 03:11:23;;;;;;;14.38;12.98;;;21.00;39.40;;;;;;5069824;28;20068;-59
2022/01/25 03:13:54;;;;;;;13.65;12.07;;;21.00;39.50;;;;;;5068468;28;20097;-58
2022/01/25 03:16:36;;;;;;;13.55;12.35;;;21.00;39.40;;;;;;5068447;28;20086;-58
2022/01/25 03:19:28;;;;;;;15.13;13.68;;;21.00;39.40;;;;;;5066079;28;35582;-58
2022/01/25 03:21:51;;;;;;;14.50;13.00;;;21.00;39.50;;;;;;5069208;28;20549;-58
2022/01/25 03:24:16;;;;;;;14.20;12.70;;;20.90;39.40;;;;;;5068389;28;20036;-59
2022/01/25 03:26:42;;;;;;;14.50;13.07;;;20.90;39.40;;;;;;5071668;28;20052;-58
2022/01/25 03:29:07;;;;;;;13.95;12.55;;;20.90;39.40;;;;;;5070631;28;20040;-57
2022/01/25 03:31:33;;;;;;;13.50;12.20;;;20.90;39.40;;;;;;5069784;28;47724;-58
2022/01/25 03:33:59;;;;;;;13.88;12.57;;;20.90;39.40;;;;;;5067390;28;20043;-59
2022/01/25 03:36:25;;;;;;;13.38;12.18;;;20.90;39.30;;;;;;5073373;28;20094;-58
2022/01/25 03:38:51;;;;;;;13.30;12.10;;;20.90;39.30;;;;;;5069811;28;20436;-59
2022/01/25 03:41:17;;;;;;;14.00;12.70;;;20.90;39.30;;;;;;5069895;28;20040;-59
2022/01/25 03:43:50;;;;;;;13.50;12.30;;;20.90;39.30;;;;;;5069741;28;20048;-58
2022/01/25 03:46:23;;;;;;;13.57;12.27;;;20.80;39.30;;;;;;5069142;28;45683;-59
2022/01/25 03:51:33;;;;;;;14.02;12.63;;;20.90;39.30;;;;;;5073024;28;20113;-59
2022/01/25 03:53:59;;;;;;;13.98;12.68;;;20.80;39.30;;;;;;5071938;28;20035;-59
2022/01/25 03:56:24;;;;;;;14.27;12.95;;;20.80;39.30;;;;;;5071366;28;20048;-59
2022/01/25 03:58:51;;;;;;;13.63;12.23;;;20.80;39.30;;;;;;5070977;28;20044;-58
2022/01/25 04:01:17;;;;;;;14.02;12.80;;;20.80;39.30;;;;;;5066888;28;40641;-57
2022/01/25 04:03:51;;;;;;;14.40;13.05;;;20.80;39.30;;;;;;5069840;28;20132;-59
2022/01/25 04:06:20;;;;;;;13.95;12.40;;;20.80;39.20;;;;;;5069710;28;20549;-59
2022/01/25 04:08:46;;;;;;;14.07;12.77;;;20.80;39.30;;;;;;5067901;28;20056;-59
2022/01/25 04:11:11;;;;;;;13.13;11.93;;;20.80;39.30;;;;;;5068542;28;20052;-58
2022/01/25 04:13:37;;;;;;;13.75;12.55;;;20.70;39.30;;;;;;5066883;28;40765;-59
2022/01/25 04:16:10;;;;;;;14.00;12.70;;;20.80;39.30;;;;;;5070228;28;20054;-59
2022/01/25 04:18:49;;;;;;;13.48;12.18;;;20.70;39.30;;;;;;5072556;28;20041;-58
2022/01/25 04:26:52;;;;;;;13.25;12.05;;;20.70;39.30;;;;;;5069854;28;20070;-58
2022/01/25 04:29:18;;;;;;;14.93;13.43;;;20.70;39.30;;;;;;5069702;28;41043;-59
2022/01/25 04:31:44;;;;;;;13.45;12.25;;;20.70;39.30;;;;;;5068581;28;20459;-58
2022/01/25 04:34:36;;;;;;;14.20;12.90;;;20.70;39.30;;;;;;5069575;28;20044;-58
2022/01/25 04:53:34;;;;;;;;;;;20.60;39.30;;;;;;5070644;28;20121;-59
2022/01/25 04:56:15;;;;;;;13.27;12.07;;;20.50;39.20;;;;;;5067040;28;40648;-58
2022/01/25 04:58:50;;;;;;;13.80;12.50;;;20.50;39.40;;;;;;5069903;28;20051;-58
2022/01/25 05:01:17;;;;;;;14.40;13.00;;;20.50;39.30;;;;;;5063772;28;20075;-58
2022/01/25 05:04:01;;;;;;;14.38;13.00;;;20.60;39.40;;;;;;5062128;28;20083;-59
2022/01/25 05:06:28;;;;;;;13.75;12.45;;;20.50;39.20;;;;;;5069174;28;20472;-59
2022/01/25 05:09:03;;;;;;;14.40;13.00;;;20.50;40.00;;;;;;5068290;28;20092;-58
2022/01/25 05:11:33;;;;;;;13.55;12.25;;;20.50;39.20;;;;;;5067913;28;41137;-58
2022/01/25 05:16:30;;;;;;;13.77;12.40;;;20.50;39.20;;;;;;5066508;28;20424;-58
2022/01/25 05:24:27;;;;;;;14.73;13.02;;;20.50;39.20;;;;;;5069557;28;32784;-59
2022/01/25 05:26:52;;;;;;;13.63;12.32;;;20.50;39.20;;;;;;5066983;28;20036;-58
2022/01/25 05:29:18;;;;;;;13.68;12.48;;;20.50;39.20;;;;;;5068095;28;20044;-58
2022/01/25 05:31:44;;;;;;;14.15;12.85;;;20.50;39.20;;;;;;5068143;28;20063;-55
2022/01/25 05:34:10;;;;;;;13.75;12.35;;;20.50;39.20;;;;;;5064863;28;20082;-57
2022/01/25 05:36:37;;;;;;;13.02;11.80;;;20.40;39.20;;;;;;5068442;28;20477;-58
2022/01/25 05:39:14;;;;;;;13.75;12.45;;;20.40;39.30;;;;;;5064120;28;35351;-59
2022/01/25 05:41:41;;;;;;;13.35;12.15;;;20.40;39.20;;;;;;5068091;28;20226;-59
2022/01/25 05:46:47;;;;;;;14.48;13.07;;;20.40;39.20;;;;;;5067069;28;20135;-58
2022/01/25 05:49:13;;;;;;;12.55;11.43;;;20.40;39.10;;;;;;5065974;28;20396;-59
2022/01/25 05:51:39;;;;;;;15.20;13.77;;;20.40;39.40;;;;;;5070248;28;20044;-59
2022/01/25 05:54:04;;;;;;;14.13;12.63;;;20.40;39.30;;;;;;5069329;28;20040;-60
2022/01/25 05:56:30;;;;;;;13.10;11.80;;;20.40;39.30;;;;;;5070536;28;20071;-59
2022/01/25 05:58:56;;;;;;;13.85;12.15;;;20.40;39.30;;;;;;5067910;28;20052;-59
2022/01/25 06:01:21;;;;;;;13.20;11.90;;;20.40;39.40;;;;;;5067024;28;20499;-59
2022/01/25 06:03:47;;;;;;;14.10;12.70;;;20.40;39.40;;;;;;5071232;28;20451;-59
2022/01/25 06:06:13;;;;;;;13.65;12.05;;;20.40;39.50;;;;;;5064032;28;43056;-58
2022/01/25 06:08:39;;;;;;;13.23;11.93;;;20.40;39.50;;;;;;5068514;28;20043;-58
2022/01/25 06:11:06;;;;;;;15.48;13.85;;;20.40;39.70;;;;;;5065187;28;20098;-58
2022/01/25 06:13:32;;;;;;;14.18;12.77;;;20.40;39.60;;;;;;5067504;28;20113;-59
2022/01/25 06:15:57;;;;;;;14.55;12.90;;;20.40;39.70;;;;;;5064245;28;20044;-59
2022/01/25 06:18:24;;;;;;;12.55;11.35;;;20.40;39.80;;;;;;5066206;28;20603;-58
2022/01/25 06:20:49;;;;;;;12.90;11.60;;;20.40;39.90;;;;;;5063951;28;40813;-59
2022/01/25 06:23:15;;;;;;;12.77;11.48;;;20.40;40.00;;;;;;5066927;28;20060;-59
2022/01/25 06:25:41;;;;;;;14.38;12.90;;;20.40;40.10;;;;;;5065825;28;20044;-59
2022/01/25 06:28:07;;;;;;;13.15;11.77;;;20.40;40.20;;;;;;5065357;28;20064;-59
2022/01/25 06:30:33;;;;;;;14.75;12.82;;;20.40;40.40;;;;;;5068533;28;20038;-59
2022/01/25 06:32:59;;;;;;;13.40;12.10;;;20.30;40.50;;;;;;5067185;28;20036;-60
2022/01/25 06:35:28;;;;;;;13.55;12.25;;;20.30;40.80;;;;;;5067521;28;40748;-59
2022/01/25 06:37:54;;;;;;;13.80;12.18;;;20.30;40.90;;;;;;5069310;28;20149;-58
2022/01/25 06:40:20;;;;;;;14.48;13.00;;;20.30;41.00;;;;;;5076333;28;20227;-60
2022/01/25 06:42:45;;;;;;;17.75;13.00;;;20.30;41.00;;;;;;5069190;28;20144;-60
2022/01/25 06:45:15;;;;;;;13.30;11.90;;;20.30;41.10;;;;;;5075044;28;20036;-60
2022/01/25 06:47:43;;;;;;;13.80;12.10;;;20.30;41.80;;;;;;5071423;28;20051;-61
2022/01/25 06:50:09;;;;;;;14.15;12.65;;;20.30;41.10;;;;;;5068454;28;38742;-59
2022/01/25 06:52:38;;;;;;;14.75;13.07;;;20.30;41.10;;;;;;5069913;28;20728;-59
2022/01/25 06:55:06;;;;;;;14.18;12.57;;;20.30;41.10;;;;;;5070192;28;20048;-60
2022/01/25 06:57:31;;;;;;;13.57;11.82;;;20.30;41.20;;;;;;5073297;28;20037;-60
2022/01/25 06:59:57;;;;;;;14.27;12.23;;;20.30;41.20;;;;;;5069291;28;20614;-60
2022/01/25 07:02:22;;;;;;;14.48;12.98;;;20.30;41.30;;;;;;5072586;28;40758;-60
2022/01/25 07:04:48;;;;;;;16.30;13.50;;;20.30;41.30;;;;;;5070192;28;20037;-60
2022/01/25 07:07:14;;;;;;;13.73;12.40;;;20.30;41.30;;;;;;5071721;28;20081;-61
2022/01/25 07:09:39;;;;;;;14.55;13.05;;;20.30;41.30;;;;;;5058563;28;20044;-60
2022/01/25 07:12:05;;;;;;;14.52;13.02;;;20.30;41.40;;;;;;5050603;28;20755;-59
2022/01/25 07:14:31;;;;;;;14.45;12.98;;;20.30;41.30;;;;;;5051925;28;20686;-59
2022/01/25 07:16:56;;;;;;;15.48;12.98;;;20.30;41.40;;;;;;5030839;28;37852;-59
2022/01/25 07:19:22;;;;;;;15.00;13.35;;;20.30;41.50;;;;;;5052964;28;20090;-59
2022/01/25 07:21:48;;;;;;;14.93;13.32;;;20.30;41.50;;;;;;5032466;28;20045;-60
2022/01/25 07:24:14;;;;;;;15.95;12.88;;;20.30;41.60;;;;;;5054057;28;20041;-59
2022/01/25 07:26:39;;;;;;;14.98;12.93;;;20.30;41.60;;;;;;5048465;28;20099;-59
2022/01/25 07:29:05;;;;;;;14.93;13.02;;;20.30;41.60;;;;;;5054343;28;20045;-59
2022/01/25 07:31:31;;;;;;;14.93;13.00;;;20.30;41.50;;;;;;5047866;28;46174;-60
2022/01/25 07:33:56;;;;;;;14.00;12.60;;;20.30;41.40;;;;;;5053158;28;20515;-60
2022/01/25 07:36:22;;;;;;;13.82;12.38;;;20.30;41.40;;;;;;5050215;28;20044;-59
2022/01/25 07:38:47;;;;;;;17.50;13.43;;;20.30;41.30;;;;;;5053551;28;20037;-59
2022/01/25 07:41:13;;;;;;;14.77;12.70;;;20.40;41.40;;;;;;5050019;28;20127;-60
2022/01/25 07:43:39;;;;;;;15.05;13.10;;;20.40;42.00;;;;;;5050486;28;20051;-60
2022/01/25 07:46:05;;;;;;;15.10;13.50;;;20.40;41.20;;;;;;5051682;28;40869;-65
2022/01/25 07:48:31;;;;;;;16.25;13.73;;;20.40;41.10;;;;;;5050786;28;20033;-60
2022/01/25 07:50:57;;;;;;;13.20;11.90;;;20.40;41.10;;;;;;5052370;28;20045;-59
2022/01/25 07:53:22;;;;;;;16.10;13.50;;;20.40;41.00;;;;;;5048595;28;20404;-59
2022/01/25 07:55:48;;;;;;;13.85;12.45;;;20.40;41.00;;;;;;5052662;28;20032;-59
2022/01/25 07:58:14;;;;;;;16.02;13.98;;;20.40;40.90;;;;;;5052454;28;20452;-60
2022/01/25 08:00:39;;;;;;;14.43;12.93;;;20.40;40.90;;;;;;5051588;28;20123;-59
2022/01/25 08:03:05;;;;;;;15.35;13.02;;;20.40;40.80;;;;;;5052447;28;20561;-60
2022/01/25 08:05:31;;;;;;;14.38;12.77;;;20.40;40.80;;;;;;5052286;28;20052;-59
2022/01/25 08:07:59;;;;;;;14.65;12.75;;;20.40;40.80;;;;;;5052501;28;20032;-60
2022/01/25 08:10:25;;;;;;;14.20;12.55;;;20.40;40.80;;;;;;5065795;28;20052;-59
2022/01/25 08:12:50;;;;;;;13.70;12.30;;;20.40;40.70;;;;;;5069496;28;37881;-59
2022/01/25 08:15:16;;;;;;;14.50;12.32;;;20.40;40.70;;;;;;5069641;28;20032;-60
2022/01/25 08:17:42;;;;;;;12.88;11.57;;;20.40;40.60;;;;;;5072326;28;20060;-59
2022/01/25 08:20:08;;;;;;;14.20;11.93;;;20.40;40.60;;;;;;5071028;28;20028;-60
2022/01/25 08:22:34;;;;;;;13.77;12.38;;;20.40;40.60;;;;;;5071757;28;20052;-59
2022/01/25 08:25:00;;;;;;;13.25;11.95;;;20.40;40.60;;;;;;5070636;28;20064;-58
2022/01/25 08:27:26;;;;;;;13.18;11.77;;;20.40;40.50;;;;;;5069288;28;40355;-59
2022/01/25 08:29:54;;;;;;;13.80;12.40;;;20.40;40.50;;;;;;5069862;28;20707;-59
2022/01/25 08:32:20;;;;;;;14.07;12.68;;;20.40;40.50;;;;;;5069540;28;20032;-59
2022/01/25 08:34:47;;;;;;;13.10;11.85;;;20.50;40.50;;;;;;5070252;28;20128;-59
2022/01/25 08:37:13;;;;;;;15.23;12.48;;;20.50;40.50;;;;;;5067301;28;20822;-58
2022/01/25 08:39:40;;;;;;;13.52;12.10;;;20.50;40.40;;;;;;5072251;28;20036;-59
2022/01/25 08:42:06;;;;;;;13.48;12.18;;;20.50;40.40;;;;;;5065670;28;38754;-59
2022/01/25 08:44:31;;;;;;;12.82;11.63;;;20.50;40.40;;;;;;5071789;28;20422;-59
2022/01/25 08:46:57;;;;;;;14.25;12.60;;;20.50;40.30;;;;;;5066695;28;20105;-59
2022/01/25 08:49:23;;;;;;;13.40;12.00;;;20.50;40.30;;;;;;5073108;28;20032;-59
2022/01/25 08:51:48;;;;;;;12.82;11.63;;;20.50;40.20;;;;;;5067269;28;20044;-59
2022/01/25 08:54:16;;;;;;;13.90;12.50;;;20.50;40.20;;;;;;5070587;28;20051;-59
2022/01/25 08:56:41;;;;;;;14.40;12.55;;;20.50;40.30;;;;;;5050112;28;33196;-59
2022/01/25 08:59:08;;;;;;;13.60;12.27;;;20.50;40.20;;;;;;5068002;28;20625;-59
2022/01/25 09:01:34;;;;;;;13.32;11.93;;;20.50;40.20;;;;;;5069658;28;20049;-59
2022/01/25 09:04:01;;;;;;;13.65;12.25;;;20.60;40.20;;;;;;5067010;28;20448;-59
2022/01/25 09:06:27;;;;;;;12.88;11.52;;;20.60;40.20;;;;;;5071172;28;20032;-59
2022/01/25 09:08:58;;;;;;;13.30;11.90;;;20.60;40.20;;;;;;5066741;28;40414;-59
2022/01/25 09:11:24;;;;;;;14.13;12.50;;;20.60;40.20;;;;;;5069779;28;20036;-59
2022/01/25 09:13:49;;;;;;;13.55;12.15;;;20.60;40.20;;;;;;5067222;28;20054;-59
2022/01/25 09:16:15;;;;;;;12.77;11.38;;;20.60;40.10;;;;;;5070617;28;20357;-59
2022/01/25 09:18:40;;;;;;;12.70;11.50;;;20.60;40.20;;;;;;5068180;28;20126;-60
2022/01/25 09:21:06;;;;;;;12.95;11.45;;;20.60;40.10;;;;;;5052755;28;20164;-60
2022/01/25 09:23:32;;;;;;;12.48;11.20;;;20.60;40.00;;;;;;5065742;28;45579;-60
2022/01/25 09:25:58;;;;;;;12.20;10.90;;;20.60;40.00;;;;;;5068442;28;20041;-59
2022/01/25 09:28:23;;;;;;;12.70;11.40;;;20.60;40.10;;;;;;5069927;28;20037;-60
2022/01/25 09:30:49;;;;;;;13.07;11.65;;;20.60;40.00;;;;;;5068450;28;21198;-60
2022/01/25 09:33:15;;;;;;;12.70;11.45;;;20.60;40.00;;;;;;5069571;28;20968;-60
2022/01/25 09:35:42;;;;;;;12.85;11.55;;;20.60;40.00;;;;;;5068488;28;20149;-60
2022/01/25 09:38:09;;;;;;;13.32;11.55;;;20.60;40.00;;;;;;5068319;28;45477;-59
2022/01/25 09:40:34;;;;;;;13.05;11.63;;;20.70;40.00;;;;;;5067892;28;20046;-60
2022/01/25 09:43:02;;;;;;;13.05;11.75;;;20.60;39.90;;;;;;5069996;28;21062;-60
2022/01/25 09:45:28;;;;;;;12.77;11.57;;;20.70;39.90;;;;;;5069107;28;20396;-60
2022/01/25 09:47:53;;;;;;;13.30;11.45;;;20.70;39.90;;;;;;5069247;28;20041;-60
2022/01/25 09:50:19;;;;;;;12.00;10.80;;;20.70;39.90;;;;;;5070326;28;20381;-60
2022/01/25 09:52:45;;;;;;;12.60;11.30;;;20.70;39.90;;;;;;5045756;28;41081;-60
2022/01/25 09:55:15;;;;;;;12.52;11.32;;;20.70;39.80;;;;;;5067438;28;20495;-60
2022/01/25 09:57:42;;;;;;;13.00;11.60;;;20.70;39.80;;;;;;5064937;28;20395;-60
2022/01/25 10:00:10;;;;;;;12.82;11.52;;;20.70;39.70;;;;;;5070255;28;20749;-60
2022/01/25 10:02:48;;;;;;;13.18;11.80;;;20.70;39.70;;;;;;5065947;28;20242;-60
2022/01/25 10:05:32;;;;;;;12.52;11.43;;;20.70;39.70;;;;;;5065192;28;37784;-60
2022/01/25 10:08:15;;;;;;;12.80;11.60;;;20.70;39.70;;;;;;5070183;28;20040;-60
2022/01/25 10:10:50;;;;;;;12.48;11.25;;;20.70;39.70;;;;;;5071129;28;20080;-60
2022/01/25 10:13:35;;;;;;;12.10;10.80;;;20.70;39.70;;;;;;5074968;28;20059;-60
2022/01/25 10:16:17;;;;;;;12.57;11.27;;;20.80;39.70;;;;;;5071467;28;20051;-60
2022/01/25 10:18:50;;;;;;;13.98;11.70;;;20.80;39.70;;;;;;5074840;28;20044;-60
2022/01/25 10:21:42;;;;;;;12.60;11.40;;;20.70;39.70;;;;;;5068571;28;41455;-60
2022/01/25 10:24:19;;;;;;;12.75;11.48;;;20.80;39.60;;;;;;5069699;28;20123;-60
2022/01/25 10:26:52;;;;;;;12.10;10.90;;;20.80;39.60;;;;;;5043838;28;20046;-60
2022/01/25 10:29:24;;;;;;;12.40;11.30;;;20.80;39.60;;;;;;5070153;28;20139;-60
2022/01/25 10:31:54;;;;;;;11.80;10.40;;;20.80;39.60;;;;;;5076956;28;20123;-60
2022/01/25 10:34:33;;;;;;;13.13;11.70;;;20.80;39.60;;;;;;5067294;28;48040;-60
2022/01/25 10:37:09;;;;;;;12.55;11.25;;;20.80;39.60;;;;;;5073854;28;20119;-60
2022/01/25 10:39:39;;;;;;;12.27;11.02;;;20.80;39.60;;;;;;5072240;28;20372;-60
2022/01/25 10:42:06;;;;;;;11.98;10.77;;;20.80;39.50;;;;;;5075082;28;20062;-60
2022/01/25 10:44:56;;;;;;;12.48;11.18;;;20.80;39.50;;;;;;5069290;28;20043;-60
2022/01/25 10:47:45;;;;;;;13.25;11.63;;;20.90;39.60;;;;;;5070498;28;40198;-60
2022/01/25 10:50:35;;;;;;;12.05;10.85;;;20.80;39.50;;;;;;5074509;28;20039;-60
2022/01/25 10:53:17;;;;;;;12.30;11.00;;;20.80;39.50;;;;;;5073007;28;20066;-60
2022/01/25 10:55:46;;;;;;;12.48;11.18;;;20.80;39.50;;;;;;5073276;28;20068;-60
2022/01/25 10:58:13;;;;;;;12.25;10.95;;;20.90;39.60;;;;;;5075159;28;20036;-60
2022/01/25 11:00:44;;;;;;;12.30;11.05;;;20.90;39.50;;;;;;5071844;28;20044;-60
2022/01/25 11:03:10;;;;;;;12.13;10.93;;;20.80;39.40;;;;;;5071908;28;38137;-60
2022/01/25 11:05:43;;;;;;;13.27;11.43;;;20.90;39.50;;;;;;5066387;28;20036;-60
2022/01/25 11:08:13;;;;;;;11.43;10.23;;;20.90;39.50;;;;;;5070325;28;20565;-60
2022/01/25 11:10:49;;;;;;;11.95;10.82;;;20.90;39.50;;;;;;5069389;28;20491;-60
2022/01/25 11:15:58;;;;;;;12.20;10.90;;;20.90;39.40;;;;;;5062661;28;32899;-60
2022/01/25 11:18:24;;;;;;;13.38;12.07;;;20.90;39.40;;;;;;5071179;28;20044;-60
2022/01/25 11:20:51;;;;;;;12.98;10.60;;;20.90;39.40;;;;;;5071258;28;20237;-60
2022/01/25 11:23:18;;;;;;;12.48;11.25;;;20.90;39.40;;;;;;5070448;28;20078;-60
2022/01/25 11:25:45;;;;;;;12.02;10.82;;;20.90;39.40;;;;;;5073320;28;20080;-60
2022/01/25 11:28:12;;;;;;;12.00;10.73;;;20.90;39.40;;;;;;5053096;28;20041;-60
2022/01/25 11:30:40;;;;;;;12.20;10.98;;;20.90;38.80;;;;;;5069709;28;42880;-60
2022/01/25 11:33:09;;;;;;;11.88;10.60;;;20.90;39.40;;;;;;5067518;28;20040;-61
2022/01/25 11:35:36;;;;;;;12.25;11.05;;;20.90;39.40;;;;;;5073412;28;20483;-60
2022/01/25 11:38:03;;;;;;;12.25;10.98;;;21.00;39.40;;;;;;5053701;28;20043;-60
2022/01/25 11:40:39;;;;;;;12.35;11.15;;;20.90;39.40;;;;;;5071304;28;20064;-60
2022/01/25 11:43:16;;;;;;;12.27;10.98;;;21.00;39.40;;;;;;5073721;28;20151;-59
2022/01/25 11:45:48;;;;;;;12.25;10.95;;;20.90;39.50;;;;;;5069239;28;20040;-60
2022/01/25 11:48:22;;;;;;;11.68;10.23;;;20.90;39.50;;;;;;5070826;28;20051;-60
2022/01/25 11:50:48;;;;;;;12.00;10.60;;;21.00;39.60;;;;;;5065394;28;20144;-60
2022/01/25 11:53:16;;;;;;;11.63;10.43;;;21.00;39.90;;;;;;5072264;28;20108;-60
2022/01/25 11:55:51;;;;;;;11.30;10.15;;;21.00;39.90;;;;;;5068798;28;20128;-60
2022/01/25 11:58:37;;;;;;;12.20;10.90;;;21.00;39.90;;;;;;5069921;28;43229;-60
2022/01/25 12:01:20;;;;;;;12.15;10.77;;;21.00;40.00;;;;;;5068857;28;20126;-60
2022/01/25 12:04:00;;;;;;;11.18;9.32;;;21.00;40.10;;;;;;5069763;28;20104;-60
2022/01/25 12:06:33;;;;;;;11.98;9.75;;;21.00;40.20;;;;;;5071420;28;20047;-60
2022/01/25 12:09:42;;;;;;;12.63;10.25;;;21.00;40.20;;;;;;5066749;28;20028;-60
2022/01/25 12:12:17;;;;;;;12.40;10.20;;;21.00;40.20;;;;;;5050534;28;20052;-61
2022/01/25 12:14:55;;;;;;;11.27;10.18;;;21.00;40.30;;;;;;5037573;28;20044;-60
2022/01/25 12:17:26;;;;;;;11.68;10.45;;;21.00;40.40;;;;;;5049387;28;20392;-60
2022/01/25 12:19:52;;;;;;;;;;;21.00;40.40;;;;;;5071641;28;20051;-60
2022/01/25 12:25:33;;;;;;;13.27;10.98;;;21.00;40.50;;;;;;5062763;28;20429;-61
2022/01/25 12:28:07;;;;;;;13.43;10.60;;;21.00;40.60;;;;;;5069142;28;20044;-60
2022/01/25 12:30:44;;;;;;;13.40;11.40;;;21.10;40.60;;;;;;5066492;28;20044;-60
2022/01/25 12:33:27;;;;;;;12.90;10.95;;;21.00;40.60;;;;;;5071958;28;20098;-59
2022/01/25 12:36:03;;;;;;;12.68;10.65;;;21.00;40.50;;;;;;5067490;28;20052;-59
2022/01/25 12:38:47;;;;;;;11.40;10.05;;;21.10;40.60;;;;;;5069116;28;20067;-60
2022/01/25 12:41:20;;;;;;;12.30;10.95;;;21.10;40.60;;;;;;5067272;28;40720;-60
2022/01/25 12:43:53;;;;;;;13.10;11.00;;;21.10;40.60;;;;;;5067746;28;20040;-60
2022/01/25 12:46:27;;;;;;;12.00;10.80;;;21.10;40.60;;;;;;5070335;28;20048;-60
2022/01/25 12:49:02;;;;;;;11.40;10.30;;;21.10;40.60;;;;;;5066262;28;20041;-60
2022/01/25 12:51:33;;;;;;;11.70;10.50;;;21.10;40.60;;;;;;5050041;28;20036;-60
2022/01/25 12:54:03;;;;;;;12.32;11.02;;;21.10;40.60;;;;;;5030255;28;39162;-60
2022/01/25 12:56:35;;;;;;;13.65;10.85;;;21.10;40.60;;;;;;5050178;28;20093;-60
2022/01/25 12:59:08;;;;;;;12.52;11.05;;;21.10;40.50;;;;;;5066409;28;20051;-59
2022/01/25 13:01:36;;;;;;;12.20;11.00;;;21.10;40.50;;;;;;5066047;28;20052;-59
2022/01/25 13:04:04;;;;;;;11.48;10.20;;;21.10;40.50;;;;;;5068187;28;20107;-60
2022/01/25 13:06:33;;;;;;;18.83;11.27;;;21.10;40.40;;;;;;5062660;28;20036;-60
2022/01/25 13:14:51;;;;;;;11.57;10.38;;;21.10;40.50;;;;;;5033789;28;20041;-60
2022/01/25 13:17:22;;;;;;;12.73;10.63;;;21.10;40.50;;;;;;5027930;28;20037;-60
2022/01/25 13:19:54;;;;;;;10.77;9.73;;;21.10;40.60;;;;;;5033293;28;20080;-60
2022/01/25 13:22:28;;;;;;;11.35;10.23;;;21.10;40.70;;;;;;5031553;28;45491;-59
2022/01/25 13:25:12;;;;;;;12.00;10.70;;;21.10;40.70;;;;;;5034087;28;20572;-60
2022/01/25 13:27:50;;;;;;;12.43;11.13;;;21.10;41.50;;;;;;5024907;28;20054;-60
2022/01/25 13:33:04;;;;;;;13.18;11.20;;;21.10;40.70;;;;;;5033051;28;20060;-59
2022/01/25 13:35:34;;;;;;;13.43;10.93;;;21.10;40.60;;;;;;5034288;28;20060;-60
2022/01/25 13:38:18;;;;;;;12.00;10.80;;;21.10;40.70;;;;;;5029040;28;40882;-59
2022/01/25 13:46:36;;;;;;;13.25;10.90;;;21.10;40.70;;;;;;5035629;28;20389;-60
2022/01/25 13:49:15;;;;;;;13.35;11.02;;;21.10;40.60;;;;;;5039036;28;20046;-60
2022/01/25 13:51:53;;;;;;;12.13;10.85;;;21.10;40.60;;;;;;5034910;28;23711;-60
2022/01/25 13:54:24;;;;;;;14.25;11.57;;;21.10;40.70;;;;;;5038235;28;20112;-59
2022/01/25 13:56:51;;;;;;;11.85;10.57;;;21.00;40.50;;;;;;5038636;28;20601;-60
2022/01/25 13:59:21;;;;;;;12.85;11.48;;;21.00;40.60;;;;;;5037764;28;20123;-60
2022/01/25 14:01:46;;;;;;;11.63;10.32;;;21.10;40.60;;;;;;5031140;28;20488;-60
2022/01/25 14:04:16;;;;;;;13.88;10.98;;;21.10;40.60;;;;;;5034361;28;43174;-59
2022/01/25 14:06:44;;;;;;;12.95;11.02;;;21.10;40.60;;;;;;5038179;28;20103;-60
2022/01/25 14:09:20;;;;;;;13.55;11.82;;;21.10;40.70;;;;;;5012723;28;20038;-59
2022/01/25 14:22:49;;;;;;;17.48;12.82;;;21.00;40.60;;;;;;5067712;28;20125;-59
2022/01/25 14:25:36;;;;;;;14.48;12.68;;;21.00;41.20;;;;;;5072321;28;20035;-60
2022/01/25 14:28:09;;;;;;;16.33;13.10;;;21.00;40.50;;;;;;5053947;28;20028;-60
2022/01/25 14:30:38;;;;;;;14.25;12.32;;;21.00;40.40;;;;;;5056122;28;20423;-60
2022/01/25 14:33:11;;;;;;;14.88;13.20;;;20.90;40.40;;;;;;5067788;28;42946;-60
2022/01/25 14:35:52;;;;;;;14.27;12.43;;;21.00;40.40;;;;;;5071529;28;20230;-60
2022/01/25 14:38:24;;;;;;;14.15;12.55;;;21.00;40.30;;;;;;5074407;28;20059;-60
2022/01/25 14:41:07;;;;;;;14.57;13.07;;;20.90;40.30;;;;;;5065082;28;20044;-60
2022/01/25 14:43:38;;;;;;;15.02;13.55;;;20.90;40.30;;;;;;5060115;28;20068;-60
2022/01/25 14:46:06;;;;;;;;;;;20.90;40.30;;;;;;5072246;28;20041;-60
2022/01/25 14:48:36;;;;;;;16.23;12.68;;;20.90;40.20;;;;;;5072062;28;19920;-59